sensor_id;sensor_type;location;lat;lon;timestamp;P1;durP1;ratioP1;P2;durP2;ratioP2
63492;SDS011;49638;47.526;10.028;2022-08-07T00:01:24;18.67;;;12.48;;
63492;SDS011;49638;47.526;10.028;2022-08-07T00:04:25;16.13;;;11.75;;
63492;SDS011;49638;47.526;10.028;2022-08-07T00:07:25;16.58;;;12.27;;
63492;SDS011;49638;47.526;10.028;2022-08-07T00:10:26;17.27;;;11.55;;
63492;SDS011;49638;47.526;10.028;2022-08-07T00:13:27;17.88;;;12.75;;
63492;SDS011;49638;47.526;10.028;2022-08-07T00:16:28;18.15;;;12.73;;
63492;SDS011;49638;47.526;10.028;2022-08-07T00:19:29;18.63;;;13.18;;
63492;SDS011;49638;47.526;10.028;2022-08-07T00:25:33;17.38;;;11.43;;
63492;SDS011;49638;47.526;10.028;2022-08-07T00:28:34;17.10;;;12.32;;
63492;SDS011;49638;47.526;10.028;2022-08-07T00:31:35;17.65;;;11.77;;
63492;SDS011;49638;47.526;10.028;2022-08-07T00:34:35;19.17;;;12.15;;
63492;SDS011;49638;47.526;10.028;2022-08-07T00:37:35;15.43;;;11.07;;
63492;SDS011;49638;47.526;10.028;2022-08-07T00:40:36;14.00;;;10.40;;
63492;SDS011;49638;47.526;10.028;2022-08-07T00:43:36;13.63;;;9.80;;
63492;SDS011;49638;47.526;10.028;2022-08-07T00:46:36;14.65;;;10.27;;
63492;SDS011;49638;47.526;10.028;2022-08-07T00:49:37;14.23;;;9.57;;
63492;SDS011;49638;47.526;10.028;2022-08-07T00:52:37;13.00;;;9.90;;
63492;SDS011;49638;47.526;10.028;2022-08-07T00:55:37;12.23;;;9.60;;
63492;SDS011;49638;47.526;10.028;2022-08-07T00:58:40;12.25;;;9.10;;
63492;SDS011;49638;47.526;10.028;2022-08-07T01:01:41;12.95;;;9.52;;
63492;SDS011;49638;47.526;10.028;2022-08-07T01:04:42;11.50;;;8.60;;
63492;SDS011;49638;47.526;10.028;2022-08-07T01:07:43;10.75;;;8.02;;
63492;SDS011;49638;47.526;10.028;2022-08-07T01:10:43;14.20;;;9.27;;
63492;SDS011;49638;47.526;10.028;2022-08-07T01:13:44;15.10;;;10.82;;
63492;SDS011;49638;47.526;10.028;2022-08-07T01:16:44;12.13;;;8.32;;
63492;SDS011;49638;47.526;10.028;2022-08-07T01:19:44;14.50;;;10.48;;
63492;SDS011;49638;47.526;10.028;2022-08-07T01:22:46;14.50;;;11.23;;
63492;SDS011;49638;47.526;10.028;2022-08-07T01:25:47;14.40;;;10.93;;
63492;SDS011;49638;47.526;10.028;2022-08-07T01:28:49;16.98;;;11.95;;
63492;SDS011;49638;47.526;10.028;2022-08-07T01:31:50;14.98;;;11.43;;
63492;SDS011;49638;47.526;10.028;2022-08-07T01:34:51;18.88;;;12.48;;
63492;SDS011;49638;47.526;10.028;2022-08-07T01:37:52;20.30;;;13.70;;
63492;SDS011;49638;47.526;10.028;2022-08-07T01:40:58;18.45;;;13.15;;
63492;SDS011;49638;47.526;10.028;2022-08-07T01:44:00;17.95;;;12.90;;
63492;SDS011;49638;47.526;10.028;2022-08-07T01:47:02;16.20;;;11.77;;
63492;SDS011;49638;47.526;10.028;2022-08-07T01:50:03;18.58;;;13.18;;
63492;SDS011;49638;47.526;10.028;2022-08-07T01:53:04;17.83;;;12.43;;
63492;SDS011;49638;47.526;10.028;2022-08-07T01:56:08;16.88;;;12.40;;
63492;SDS011;49638;47.526;10.028;2022-08-07T02:02:55;18.25;;;12.68;;
63492;SDS011;49638;47.526;10.028;2022-08-07T02:06:02;19.50;;;14.32;;
63492;SDS011;49638;47.526;10.028;2022-08-07T02:09:06;19.70;;;13.75;;
63492;SDS011;49638;47.526;10.028;2022-08-07T02:12:09;19.65;;;14.38;;
63492;SDS011;49638;47.526;10.028;2022-08-07T02:15:18;22.40;;;15.55;;
63492;SDS011;49638;47.526;10.028;2022-08-07T02:18:21;23.35;;;15.48;;
63492;SDS011;49638;47.526;10.028;2022-08-07T02:21:22;19.23;;;14.38;;
63492;SDS011;49638;47.526;10.028;2022-08-07T02:24:23;23.30;;;15.82;;
63492;SDS011;49638;47.526;10.028;2022-08-07T02:27:25;23.50;;;15.68;;
63492;SDS011;49638;47.526;10.028;2022-08-07T02:30:27;23.45;;;15.52;;
63492;SDS011;49638;47.526;10.028;2022-08-07T02:33:28;27.27;;;16.30;;
63492;SDS011;49638;47.526;10.028;2022-08-07T02:36:30;23.67;;;16.17;;
63492;SDS011;49638;47.526;10.028;2022-08-07T02:39:32;25.35;;;16.52;;
63492;SDS011;49638;47.526;10.028;2022-08-07T02:42:34;21.90;;;15.88;;
63492;SDS011;49638;47.526;10.028;2022-08-07T02:45:36;24.05;;;15.90;;
63492;SDS011;49638;47.526;10.028;2022-08-07T02:48:39;20.70;;;13.88;;
63492;SDS011;49638;47.526;10.028;2022-08-07T02:51:39;20.98;;;13.98;;
63492;SDS011;49638;47.526;10.028;2022-08-07T02:54:43;22.85;;;14.23;;
63492;SDS011;49638;47.526;10.028;2022-08-07T02:57:45;17.08;;;13.05;;
63492;SDS011;49638;47.526;10.028;2022-08-07T03:00:48;22.58;;;15.07;;
63492;SDS011;49638;47.526;10.028;2022-08-07T03:03:50;19.08;;;12.68;;
63492;SDS011;49638;47.526;10.028;2022-08-07T03:06:51;17.35;;;12.93;;
63492;SDS011;49638;47.526;10.028;2022-08-07T03:09:52;20.40;;;13.52;;
63492;SDS011;49638;47.526;10.028;2022-08-07T03:12:53;15.63;;;11.68;;
63492;SDS011;49638;47.526;10.028;2022-08-07T03:15:54;16.52;;;12.30;;
63492;SDS011;49638;47.526;10.028;2022-08-07T03:18:55;17.08;;;12.07;;
63492;SDS011;49638;47.526;10.028;2022-08-07T03:21:55;16.73;;;12.15;;
63492;SDS011;49638;47.526;10.028;2022-08-07T03:24:56;15.50;;;11.93;;
63492;SDS011;49638;47.526;10.028;2022-08-07T03:27:58;18.10;;;12.57;;
63492;SDS011;49638;47.526;10.028;2022-08-07T03:31:02;17.23;;;11.38;;
63492;SDS011;49638;47.526;10.028;2022-08-07T03:34:18;15.82;;;10.85;;
63492;SDS011;49638;47.526;10.028;2022-08-07T03:37:20;14.00;;;10.18;;
63492;SDS011;49638;47.526;10.028;2022-08-07T03:40:22;13.30;;;10.25;;
63492;SDS011;49638;47.526;10.028;2022-08-07T03:43:23;14.57;;;10.48;;
63492;SDS011;49638;47.526;10.028;2022-08-07T03:46:24;13.98;;;9.75;;
63492;SDS011;49638;47.526;10.028;2022-08-07T03:49:26;13.73;;;10.55;;
63492;SDS011;49638;47.526;10.028;2022-08-07T03:52:27;13.93;;;10.13;;
63492;SDS011;49638;47.526;10.028;2022-08-07T03:55:29;13.52;;;10.02;;
63492;SDS011;49638;47.526;10.028;2022-08-07T03:58:30;15.50;;;11.85;;
63492;SDS011;49638;47.526;10.028;2022-08-07T04:01:31;14.63;;;11.10;;
63492;SDS011;49638;47.526;10.028;2022-08-07T04:04:33;18.23;;;12.38;;
63492;SDS011;49638;47.526;10.028;2022-08-07T04:07:34;17.35;;;12.43;;
63492;SDS011;49638;47.526;10.028;2022-08-07T04:10:34;17.55;;;12.70;;
63492;SDS011;49638;47.526;10.028;2022-08-07T04:13:35;18.08;;;12.98;;
63492;SDS011;49638;47.526;10.028;2022-08-07T04:16:36;17.30;;;11.43;;
63492;SDS011;49638;47.526;10.028;2022-08-07T04:19:40;16.90;;;10.77;;
63492;SDS011;49638;47.526;10.028;2022-08-07T04:22:41;15.40;;;10.98;;
63492;SDS011;49638;47.526;10.028;2022-08-07T04:25:41;14.77;;;10.70;;
63492;SDS011;49638;47.526;10.028;2022-08-07T04:28:42;13.55;;;10.23;;
63492;SDS011;49638;47.526;10.028;2022-08-07T04:31:43;11.43;;;9.32;;
63492;SDS011;49638;47.526;10.028;2022-08-07T04:34:43;14.70;;;10.82;;
63492;SDS011;49638;47.526;10.028;2022-08-07T04:37:44;15.38;;;11.00;;
63492;SDS011;49638;47.526;10.028;2022-08-07T04:40:44;13.75;;;9.90;;
63492;SDS011;49638;47.526;10.028;2022-08-07T04:43:45;11.57;;;8.52;;
63492;SDS011;49638;47.526;10.028;2022-08-07T04:50:15;12.13;;;9.00;;
63492;SDS011;49638;47.526;10.028;2022-08-07T04:53:40;12.43;;;8.93;;
63492;SDS011;49638;47.526;10.028;2022-08-07T05:03:23;9.70;;;7.93;;
63492;SDS011;49638;47.526;10.028;2022-08-07T05:06:24;10.27;;;7.97;;
63492;SDS011;49638;47.526;10.028;2022-08-07T05:12:55;8.48;;;6.80;;
63492;SDS011;49638;47.526;10.028;2022-08-07T05:15:58;9.70;;;7.35;;
63492;SDS011;49638;47.526;10.028;2022-08-07T05:19:10;8.35;;;6.78;;
63492;SDS011;49638;47.526;10.028;2022-08-07T05:22:12;8.70;;;7.00;;
63492;SDS011;49638;47.526;10.028;2022-08-07T05:25:15;10.75;;;7.13;;
63492;SDS011;49638;47.526;10.028;2022-08-07T05:28:18;6.28;;;5.47;;
63492;SDS011;49638;47.526;10.028;2022-08-07T05:31:19;8.57;;;6.47;;
63492;SDS011;49638;47.526;10.028;2022-08-07T05:34:22;8.02;;;6.38;;
63492;SDS011;49638;47.526;10.028;2022-08-07T05:37:24;8.73;;;6.97;;
63492;SDS011;49638;47.526;10.028;2022-08-07T05:40:25;8.20;;;6.88;;
63492;SDS011;49638;47.526;10.028;2022-08-07T05:43:25;8.40;;;6.65;;
63492;SDS011;49638;47.526;10.028;2022-08-07T05:46:26;8.27;;;6.63;;
63492;SDS011;49638;47.526;10.028;2022-08-07T05:49:26;9.48;;;7.03;;
63492;SDS011;49638;47.526;10.028;2022-08-07T05:52:28;8.82;;;6.95;;
63492;SDS011;49638;47.526;10.028;2022-08-07T05:55:29;8.75;;;7.65;;
63492;SDS011;49638;47.526;10.028;2022-08-07T05:58:32;8.27;;;6.68;;
63492;SDS011;49638;47.526;10.028;2022-08-07T06:01:35;9.25;;;6.75;;
63492;SDS011;49638;47.526;10.028;2022-08-07T06:04:38;9.70;;;7.20;;
63492;SDS011;49638;47.526;10.028;2022-08-07T06:07:46;8.85;;;6.80;;
63492;SDS011;49638;47.526;10.028;2022-08-07T06:10:47;10.75;;;7.28;;
63492;SDS011;49638;47.526;10.028;2022-08-07T06:13:47;8.43;;;7.03;;
63492;SDS011;49638;47.526;10.028;2022-08-07T06:16:48;8.63;;;7.10;;
63492;SDS011;49638;47.526;10.028;2022-08-07T06:19:50;10.10;;;8.02;;
63492;SDS011;49638;47.526;10.028;2022-08-07T06:22:51;8.77;;;7.45;;
63492;SDS011;49638;47.526;10.028;2022-08-07T06:25:54;10.48;;;7.68;;
63492;SDS011;49638;47.526;10.028;2022-08-07T06:28:55;9.80;;;6.90;;
63492;SDS011;49638;47.526;10.028;2022-08-07T06:31:58;10.23;;;7.20;;
63492;SDS011;49638;47.526;10.028;2022-08-07T06:34:59;9.30;;;7.07;;
63492;SDS011;49638;47.526;10.028;2022-08-07T06:37:59;9.90;;;7.75;;
63492;SDS011;49638;47.526;10.028;2022-08-07T06:40:59;10.23;;;7.95;;
63492;SDS011;49638;47.526;10.028;2022-08-07T06:44:03;11.73;;;8.48;;
63492;SDS011;49638;47.526;10.028;2022-08-07T06:47:05;13.73;;;9.38;;
63492;SDS011;49638;47.526;10.028;2022-08-07T06:50:06;13.80;;;9.52;;
63492;SDS011;49638;47.526;10.028;2022-08-07T06:53:07;14.05;;;9.70;;
63492;SDS011;49638;47.526;10.028;2022-08-07T06:56:10;14.07;;;9.50;;
63492;SDS011;49638;47.526;10.028;2022-08-07T06:59:14;12.82;;;9.60;;
63492;SDS011;49638;47.526;10.028;2022-08-07T07:02:19;12.35;;;8.52;;
63492;SDS011;49638;47.526;10.028;2022-08-07T07:05:21;12.07;;;9.03;;
63492;SDS011;49638;47.526;10.028;2022-08-07T07:08:25;13.50;;;9.40;;
63492;SDS011;49638;47.526;10.028;2022-08-07T07:11:27;13.73;;;8.98;;
63492;SDS011;49638;47.526;10.028;2022-08-07T07:14:30;11.45;;;9.10;;
63492;SDS011;49638;47.526;10.028;2022-08-07T07:24:18;14.38;;;9.55;;
63492;SDS011;49638;47.526;10.028;2022-08-07T07:27:19;12.30;;;9.60;;
63492;SDS011;49638;47.526;10.028;2022-08-07T07:33:25;16.33;;;9.88;;
63492;SDS011;49638;47.526;10.028;2022-08-07T07:36:27;13.52;;;10.13;;
63492;SDS011;49638;47.526;10.028;2022-08-07T07:39:29;13.35;;;9.77;;
63492;SDS011;49638;47.526;10.028;2022-08-07T07:42:30;12.82;;;9.43;;
63492;SDS011;49638;47.526;10.028;2022-08-07T07:45:33;11.73;;;10.05;;
63492;SDS011;49638;47.526;10.028;2022-08-07T07:48:33;14.43;;;10.35;;
63492;SDS011;49638;47.526;10.028;2022-08-07T07:51:35;13.48;;;9.85;;
63492;SDS011;49638;47.526;10.028;2022-08-07T07:54:37;14.13;;;10.15;;
63492;SDS011;49638;47.526;10.028;2022-08-07T07:57:40;13.60;;;10.13;;
63492;SDS011;49638;47.526;10.028;2022-08-07T08:00:42;15.10;;;10.70;;
63492;SDS011;49638;47.526;10.028;2022-08-07T08:03:44;12.95;;;10.07;;
63492;SDS011;49638;47.526;10.028;2022-08-07T08:06:45;14.77;;;9.45;;
63492;SDS011;49638;47.526;10.028;2022-08-07T08:09:46;13.20;;;9.80;;
63492;SDS011;49638;47.526;10.028;2022-08-07T08:12:49;14.23;;;9.77;;
63492;SDS011;49638;47.526;10.028;2022-08-07T08:15:50;13.82;;;10.43;;
63492;SDS011;49638;47.526;10.028;2022-08-07T08:18:52;12.55;;;10.00;;
63492;SDS011;49638;47.526;10.028;2022-08-07T08:21:54;13.43;;;9.88;;
63492;SDS011;49638;47.526;10.028;2022-08-07T08:25:16;13.52;;;10.00;;
63492;SDS011;49638;47.526;10.028;2022-08-07T08:28:39;11.35;;;9.70;;
63492;SDS011;49638;47.526;10.028;2022-08-07T08:31:42;14.60;;;10.73;;
63492;SDS011;49638;47.526;10.028;2022-08-07T08:34:44;16.23;;;10.60;;
63492;SDS011;49638;47.526;10.028;2022-08-07T08:37:47;10.85;;;9.75;;
63492;SDS011;49638;47.526;10.028;2022-08-07T08:40:52;12.15;;;10.05;;
63492;SDS011;49638;47.526;10.028;2022-08-07T08:44:04;11.48;;;9.80;;
63492;SDS011;49638;47.526;10.028;2022-08-07T08:47:38;11.48;;;10.18;;
63492;SDS011;49638;47.526;10.028;2022-08-07T08:51:02;13.82;;;9.77;;
63492;SDS011;49638;47.526;10.028;2022-08-07T08:57:34;12.07;;;9.65;;
63492;SDS011;49638;47.526;10.028;2022-08-07T09:00:41;12.10;;;9.68;;
63492;SDS011;49638;47.526;10.028;2022-08-07T09:07:14;12.32;;;10.32;;
63492;SDS011;49638;47.526;10.028;2022-08-07T09:18:05;14.85;;;10.73;;
63492;SDS011;49638;47.526;10.028;2022-08-07T09:24:55;12.38;;;10.60;;
63492;SDS011;49638;47.526;10.028;2022-08-07T09:28:04;11.77;;;10.23;;
63492;SDS011;49638;47.526;10.028;2022-08-07T09:31:34;14.23;;;11.05;;
63492;SDS011;49638;47.526;10.028;2022-08-07T09:44:32;13.88;;;11.18;;
63492;SDS011;49638;47.526;10.028;2022-08-07T09:47:56;12.50;;;10.77;;
63492;SDS011;49638;47.526;10.028;2022-08-07T09:51:07;12.98;;;11.60;;
63492;SDS011;49638;47.526;10.028;2022-08-07T09:54:17;14.27;;;11.23;;
63492;SDS011;49638;47.526;10.028;2022-08-07T10:00:30;15.98;;;11.70;;
63492;SDS011;49638;47.526;10.028;2022-08-07T10:07:18;12.07;;;10.25;;
63492;SDS011;49638;47.526;10.028;2022-08-07T10:17:47;12.77;;;9.90;;
63492;SDS011;49638;47.526;10.028;2022-08-07T10:21:29;11.57;;;9.75;;
63492;SDS011;49638;47.526;10.028;2022-08-07T10:25:02;12.48;;;10.05;;
63492;SDS011;49638;47.526;10.028;2022-08-07T10:31:37;12.15;;;10.85;;
63492;SDS011;49638;47.526;10.028;2022-08-07T10:38:39;12.50;;;11.05;;
63492;SDS011;49638;47.526;10.028;2022-08-07T10:44:47;14.27;;;10.43;;
63492;SDS011;49638;47.526;10.028;2022-08-07T10:51:08;12.55;;;10.23;;
63492;SDS011;49638;47.526;10.028;2022-08-07T10:54:14;10.18;;;8.85;;
63492;SDS011;49638;47.526;10.028;2022-08-07T10:57:24;11.75;;;8.98;;
63492;SDS011;49638;47.526;10.028;2022-08-07T11:00:33;12.32;;;8.88;;
63492;SDS011;49638;47.526;10.028;2022-08-07T11:03:47;10.32;;;9.23;;
63492;SDS011;49638;47.526;10.028;2022-08-07T11:07:13;11.63;;;9.45;;
63492;SDS011;49638;47.526;10.028;2022-08-07T11:13:57;10.23;;;8.70;;
63492;SDS011;49638;47.526;10.028;2022-08-07T11:17:06;9.05;;;8.15;;
63492;SDS011;49638;47.526;10.028;2022-08-07T11:20:13;9.75;;;8.60;;
63492;SDS011;49638;47.526;10.028;2022-08-07T11:26:49;54.25;;;35.72;;
63492;SDS011;49638;47.526;10.028;2022-08-07T11:30:03;12.57;;;10.13;;
63492;SDS011;49638;47.526;10.028;2022-08-07T11:33:07;9.73;;;8.73;;
63492;SDS011;49638;47.526;10.028;2022-08-07T11:36:33;11.48;;;9.20;;
63492;SDS011;49638;47.526;10.028;2022-08-07T11:42:58;12.18;;;9.68;;
63492;SDS011;49638;47.526;10.028;2022-08-07T11:49:52;10.93;;;8.82;;
63492;SDS011;49638;47.526;10.028;2022-08-07T11:53:12;10.23;;;9.10;;
63492;SDS011;49638;47.526;10.028;2022-08-07T12:10:56;10.38;;;8.85;;
63492;SDS011;49638;47.526;10.028;2022-08-07T12:14:00;9.80;;;8.80;;
63492;SDS011;49638;47.526;10.028;2022-08-07T12:17:09;9.68;;;8.68;;
63492;SDS011;49638;47.526;10.028;2022-08-07T12:20:17;10.50;;;8.57;;
63492;SDS011;49638;47.526;10.028;2022-08-07T12:23:27;10.98;;;9.52;;
63492;SDS011;49638;47.526;10.028;2022-08-07T12:26:40;13.57;;;10.02;;
63492;SDS011;49638;47.526;10.028;2022-08-07T12:29:47;10.48;;;8.40;;
63492;SDS011;49638;47.526;10.028;2022-08-07T12:33:06;18.23;;;10.52;;
63492;SDS011;49638;47.526;10.028;2022-08-07T12:36:12;8.25;;;7.45;;
63492;SDS011;49638;47.526;10.028;2022-08-07T12:39:14;31.20;;;15.80;;
63492;SDS011;49638;47.526;10.028;2022-08-07T12:45:38;8.82;;;7.93;;
63492;SDS011;49638;47.526;10.028;2022-08-07T12:48:59;8.90;;;7.25;;
63492;SDS011;49638;47.526;10.028;2022-08-07T12:52:11;9.15;;;7.82;;
63492;SDS011;49638;47.526;10.028;2022-08-07T12:55:20;8.20;;;7.13;;
63492;SDS011;49638;47.526;10.028;2022-08-07T12:58:26;8.77;;;7.53;;
63492;SDS011;49638;47.526;10.028;2022-08-07T13:01:34;10.02;;;8.00;;
63492;SDS011;49638;47.526;10.028;2022-08-07T13:05:03;8.45;;;7.65;;
63492;SDS011;49638;47.526;10.028;2022-08-07T13:11:58;9.93;;;8.30;;
63492;SDS011;49638;47.526;10.028;2022-08-07T13:18:30;11.23;;;8.20;;
63492;SDS011;49638;47.526;10.028;2022-08-07T13:25:00;8.15;;;7.30;;
63492;SDS011;49638;47.526;10.028;2022-08-07T13:28:13;8.73;;;7.38;;
63492;SDS011;49638;47.526;10.028;2022-08-07T13:31:19;8.45;;;7.57;;
63492;SDS011;49638;47.526;10.028;2022-08-07T13:41:29;9.30;;;7.45;;
63492;SDS011;49638;47.526;10.028;2022-08-07T13:44:37;8.65;;;7.72;;
63492;SDS011;49638;47.526;10.028;2022-08-07T13:47:40;10.18;;;8.30;;
63492;SDS011;49638;47.526;10.028;2022-08-07T13:50:41;9.75;;;7.80;;
63492;SDS011;49638;47.526;10.028;2022-08-07T13:53:45;8.95;;;8.02;;
63492;SDS011;49638;47.526;10.028;2022-08-07T13:56:51;8.88;;;7.97;;
63492;SDS011;49638;47.526;10.028;2022-08-07T13:59:54;8.67;;;7.80;;
63492;SDS011;49638;47.526;10.028;2022-08-07T14:02:56;8.55;;;7.75;;
63492;SDS011;49638;47.526;10.028;2022-08-07T14:05:58;10.38;;;9.20;;
63492;SDS011;49638;47.526;10.028;2022-08-07T14:09:00;9.73;;;8.73;;
63492;SDS011;49638;47.526;10.028;2022-08-07T14:12:03;8.32;;;7.43;;
63492;SDS011;49638;47.526;10.028;2022-08-07T14:15:06;9.18;;;8.13;;
63492;SDS011;49638;47.526;10.028;2022-08-07T14:21:31;8.95;;;8.05;;
63492;SDS011;49638;47.526;10.028;2022-08-07T14:24:35;9.05;;;7.85;;
63492;SDS011;49638;47.526;10.028;2022-08-07T14:27:45;11.40;;;8.90;;
63492;SDS011;49638;47.526;10.028;2022-08-07T14:30:50;9.55;;;8.50;;
63492;SDS011;49638;47.526;10.028;2022-08-07T14:33:51;10.30;;;8.65;;
63492;SDS011;49638;47.526;10.028;2022-08-07T14:36:53;10.48;;;9.00;;
63492;SDS011;49638;47.526;10.028;2022-08-07T14:39:54;10.45;;;8.73;;
63492;SDS011;49638;47.526;10.028;2022-08-07T14:42:59;10.20;;;8.60;;
63492;SDS011;49638;47.526;10.028;2022-08-07T14:46:02;10.45;;;8.90;;
63492;SDS011;49638;47.526;10.028;2022-08-07T14:49:04;10.65;;;8.35;;
63492;SDS011;49638;47.526;10.028;2022-08-07T14:52:06;8.90;;;8.00;;
63492;SDS011;49638;47.526;10.028;2022-08-07T14:55:07;9.60;;;8.63;;
63492;SDS011;49638;47.526;10.028;2022-08-07T14:58:12;11.50;;;8.70;;
63492;SDS011;49638;47.526;10.028;2022-08-07T15:01:13;10.20;;;8.77;;
63492;SDS011;49638;47.526;10.028;2022-08-07T15:04:16;10.27;;;8.80;;
63492;SDS011;49638;47.526;10.028;2022-08-07T15:07:18;9.23;;;8.30;;
63492;SDS011;49638;47.526;10.028;2022-08-07T15:10:25;10.43;;;8.90;;
63492;SDS011;49638;47.526;10.028;2022-08-07T15:13:27;9.63;;;8.63;;
63492;SDS011;49638;47.526;10.028;2022-08-07T15:16:44;8.80;;;8.00;;
63492;SDS011;49638;47.526;10.028;2022-08-07T15:19:50;9.95;;;8.63;;
63492;SDS011;49638;47.526;10.028;2022-08-07T15:22:55;9.32;;;8.40;;
63492;SDS011;49638;47.526;10.028;2022-08-07T15:25:59;9.50;;;8.30;;
63492;SDS011;49638;47.526;10.028;2022-08-07T15:29:01;11.32;;;8.93;;
63492;SDS011;49638;47.526;10.028;2022-08-07T15:32:04;11.07;;;9.02;;
63492;SDS011;49638;47.526;10.028;2022-08-07T15:35:11;8.82;;;8.02;;
63492;SDS011;49638;47.526;10.028;2022-08-07T15:38:14;9.13;;;8.13;;
63492;SDS011;49638;47.526;10.028;2022-08-07T15:41:16;7.95;;;7.18;;
63492;SDS011;49638;47.526;10.028;2022-08-07T15:44:20;8.27;;;7.47;;
63492;SDS011;49638;47.526;10.028;2022-08-07T15:47:22;8.10;;;7.20;;
63492;SDS011;49638;47.526;10.028;2022-08-07T15:50:26;8.13;;;7.32;;
63492;SDS011;49638;47.526;10.028;2022-08-07T15:53:40;7.65;;;6.88;;
63492;SDS011;49638;47.526;10.028;2022-08-07T15:56:52;7.43;;;6.65;;
63492;SDS011;49638;47.526;10.028;2022-08-07T15:59:58;7.72;;;7.03;;
63492;SDS011;49638;47.526;10.028;2022-08-07T16:03:02;11.75;;;7.70;;
63492;SDS011;49638;47.526;10.028;2022-08-07T16:06:05;7.95;;;7.15;;
63492;SDS011;49638;47.526;10.028;2022-08-07T16:09:10;9.48;;;7.90;;
63492;SDS011;49638;47.526;10.028;2022-08-07T16:12:21;8.80;;;7.32;;
63492;SDS011;49638;47.526;10.028;2022-08-07T16:15:48;7.60;;;6.82;;
63492;SDS011;49638;47.526;10.028;2022-08-07T16:22:32;7.60;;;6.80;;
63492;SDS011;49638;47.526;10.028;2022-08-07T16:32:09;8.30;;;7.28;;
63492;SDS011;49638;47.526;10.028;2022-08-07T16:35:14;8.73;;;7.05;;
63492;SDS011;49638;47.526;10.028;2022-08-07T16:38:26;7.70;;;6.97;;
63492;SDS011;49638;47.526;10.028;2022-08-07T16:45:11;7.88;;;6.80;;
63492;SDS011;49638;47.526;10.028;2022-08-07T16:52:22;7.18;;;6.47;;
63492;SDS011;49638;47.526;10.028;2022-08-07T16:59:00;9.90;;;7.40;;
63492;SDS011;49638;47.526;10.028;2022-08-07T17:09:10;7.85;;;6.90;;
63492;SDS011;49638;47.526;10.028;2022-08-07T17:12:23;7.70;;;6.90;;
63492;SDS011;49638;47.526;10.028;2022-08-07T17:15:37;8.18;;;7.03;;
63492;SDS011;49638;47.526;10.028;2022-08-07T17:19:02;7.85;;;7.03;;
63492;SDS011;49638;47.526;10.028;2022-08-07T17:25:19;10.00;;;7.80;;
63492;SDS011;49638;47.526;10.028;2022-08-07T17:28:32;10.30;;;7.40;;
63492;SDS011;49638;47.526;10.028;2022-08-07T17:35:22;7.68;;;6.88;;
63492;SDS011;49638;47.526;10.028;2022-08-07T17:38:33;7.80;;;7.00;;
63492;SDS011;49638;47.526;10.028;2022-08-07T17:41:46;8.68;;;6.75;;
63492;SDS011;49638;47.526;10.028;2022-08-07T17:45:10;7.68;;;6.97;;
63492;SDS011;49638;47.526;10.028;2022-08-07T17:48:19;7.97;;;7.18;;
63492;SDS011;49638;47.526;10.028;2022-08-07T17:51:30;8.25;;;6.28;;
63492;SDS011;49638;47.526;10.028;2022-08-07T17:54:49;7.75;;;7.05;;
63492;SDS011;49638;47.526;10.028;2022-08-07T17:58:01;8.52;;;7.22;;
63492;SDS011;49638;47.526;10.028;2022-08-07T18:01:09;7.90;;;7.10;;
63492;SDS011;49638;47.526;10.028;2022-08-07T18:04:30;9.32;;;7.43;;
63492;SDS011;49638;47.526;10.028;2022-08-07T18:07:45;7.68;;;6.78;;
63492;SDS011;49638;47.526;10.028;2022-08-07T18:11:05;8.02;;;7.00;;
63492;SDS011;49638;47.526;10.028;2022-08-07T18:14:17;7.80;;;6.47;;
63492;SDS011;49638;47.526;10.028;2022-08-07T18:20:32;9.02;;;6.30;;
63492;SDS011;49638;47.526;10.028;2022-08-07T18:30:06;7.57;;;6.80;;
63492;SDS011;49638;47.526;10.028;2022-08-07T18:36:43;7.45;;;6.65;;
63492;SDS011;49638;47.526;10.028;2022-08-07T18:46:55;7.40;;;6.50;;
63492;SDS011;49638;47.526;10.028;2022-08-07T18:59:55;6.85;;;6.15;;
63492;SDS011;49638;47.526;10.028;2022-08-07T19:03:06;6.72;;;6.00;;
63492;SDS011;49638;47.526;10.028;2022-08-07T19:06:17;8.63;;;5.93;;
63492;SDS011;49638;47.526;10.028;2022-08-07T19:12:57;6.80;;;6.20;;
63492;SDS011;49638;47.526;10.028;2022-08-07T19:20:02;7.85;;;6.15;;
63492;SDS011;49638;47.526;10.028;2022-08-07T19:23:26;6.55;;;5.93;;
63492;SDS011;49638;47.526;10.028;2022-08-07T19:26:33;6.97;;;6.28;;
63492;SDS011;49638;47.526;10.028;2022-08-07T19:29:40;7.25;;;5.70;;
63492;SDS011;49638;47.526;10.028;2022-08-07T19:32:44;6.45;;;5.85;;
63492;SDS011;49638;47.526;10.028;2022-08-07T19:35:53;6.35;;;5.75;;
63492;SDS011;49638;47.526;10.028;2022-08-07T19:38:56;6.85;;;6.13;;
63492;SDS011;49638;47.526;10.028;2022-08-07T19:41:59;8.18;;;6.50;;
63492;SDS011;49638;47.526;10.028;2022-08-07T19:45:02;7.63;;;5.90;;
63492;SDS011;49638;47.526;10.028;2022-08-07T19:48:05;6.97;;;6.28;;
63492;SDS011;49638;47.526;10.028;2022-08-07T19:51:07;6.68;;;6.07;;
63492;SDS011;49638;47.526;10.028;2022-08-07T19:54:08;8.45;;;5.80;;
63492;SDS011;49638;47.526;10.028;2022-08-07T19:57:10;6.68;;;6.07;;
63492;SDS011;49638;47.526;10.028;2022-08-07T20:00:23;7.68;;;6.30;;
63492;SDS011;49638;47.526;10.028;2022-08-07T20:03:25;10.18;;;6.63;;
63492;SDS011;49638;47.526;10.028;2022-08-07T20:06:29;7.72;;;6.40;;
63492;SDS011;49638;47.526;10.028;2022-08-07T20:09:30;8.32;;;6.50;;
63492;SDS011;49638;47.526;10.028;2022-08-07T20:12:32;7.53;;;6.55;;
63492;SDS011;49638;47.526;10.028;2022-08-07T20:15:36;6.93;;;6.05;;
63492;SDS011;49638;47.526;10.028;2022-08-07T20:18:39;7.15;;;6.25;;
63492;SDS011;49638;47.526;10.028;2022-08-07T20:21:41;8.65;;;6.88;;
63492;SDS011;49638;47.526;10.028;2022-08-07T20:24:45;7.43;;;6.57;;
63492;SDS011;49638;47.526;10.028;2022-08-07T20:27:47;7.30;;;6.47;;
63492;SDS011;49638;47.526;10.028;2022-08-07T20:30:49;7.43;;;6.57;;
63492;SDS011;49638;47.526;10.028;2022-08-07T20:33:51;9.18;;;6.50;;
63492;SDS011;49638;47.526;10.028;2022-08-07T20:36:55;6.45;;;5.85;;
63492;SDS011;49638;47.526;10.028;2022-08-07T20:39:57;9.07;;;6.30;;
63492;SDS011;49638;47.526;10.028;2022-08-07T20:42:59;7.82;;;6.32;;
63492;SDS011;49638;47.526;10.028;2022-08-07T20:46:01;6.97;;;6.00;;
63492;SDS011;49638;47.526;10.028;2022-08-07T20:49:02;8.60;;;6.20;;
63492;SDS011;49638;47.526;10.028;2022-08-07T20:52:03;7.95;;;6.00;;
63492;SDS011;49638;47.526;10.028;2022-08-07T20:55:04;6.53;;;5.85;;
63492;SDS011;49638;47.526;10.028;2022-08-07T20:58:05;6.90;;;6.20;;
63492;SDS011;49638;47.526;10.028;2022-08-07T21:01:11;6.70;;;6.00;;
63492;SDS011;49638;47.526;10.028;2022-08-07T21:04:15;7.18;;;6.13;;
63492;SDS011;49638;47.526;10.028;2022-08-07T21:10:19;7.40;;;6.30;;
63492;SDS011;49638;47.526;10.028;2022-08-07T21:13:22;6.85;;;6.15;;
63492;SDS011;49638;47.526;10.028;2022-08-07T21:16:25;6.88;;;5.82;;
63492;SDS011;49638;47.526;10.028;2022-08-07T21:19:33;6.93;;;6.22;;
63492;SDS011;49638;47.526;10.028;2022-08-07T21:22:41;6.38;;;5.78;;
63492;SDS011;49638;47.526;10.028;2022-08-07T21:25:59;6.93;;;6.18;;
63492;SDS011;49638;47.526;10.028;2022-08-07T21:29:15;7.13;;;5.57;;
63492;SDS011;49638;47.526;10.028;2022-08-07T21:32:22;7.32;;;5.95;;
63492;SDS011;49638;47.526;10.028;2022-08-07T21:35:38;7.05;;;6.38;;
63492;SDS011;49638;47.526;10.028;2022-08-07T21:41:59;7.30;;;6.50;;
63492;SDS011;49638;47.526;10.028;2022-08-07T21:45:02;9.95;;;6.10;;